Time;durP1;ratioP1;P1;durP2;ratioP2;P2;SDS_P1;SDS_P2;PMS_P1;PMS_P2;Temp;Humidity;BMP_temperature;BMP_pressure;BME280_temperature;BME280_humidity;BME280_pressure;Samples;Min_cycle;Max_cycle;Signal;HPM_P1;HPM_P2
2023/08/03 00:00:56;;;;;;;11.07;1.48;;;;;;;19.62;82.17;98655.88;4988187;28;20193;-69
2023/08/03 00:03:22;;;;;;;5.32;1.17;;;;;;;19.59;82.13;98651.50;4988240;28;20279;-69
2023/08/03 00:05:49;;;;;;;4.47;1.10;;;;;;;19.58;83.76;98651.59;4989334;28;20209;-69
2023/08/03 00:08:15;;;;;;;7.47;1.60;;;;;;;19.55;83.94;98654.44;4985701;28;20204;-70
2023/08/03 00:10:42;;;;;;;5.03;1.25;;;;;;;19.52;83.42;98649.19;4985357;28;20213;-69
2023/08/03 00:13:08;;;;;;;5.10;1.08;;;;;;;19.46;84.56;98641.44;4986727;28;20231;-69
2023/08/03 00:15:35;;;;;;;4.05;1.38;;;;;;;19.48;84.61;98655.66;4985461;28;20212;-69
2023/08/03 00:18:01;;;;;;;4.32;1.10;;;;;;;19.46;85.02;98650.38;4984721;28;20625;-70
2023/08/03 00:20:27;;;;;;;5.93;1.40;;;;;;;19.47;85.04;98651.22;4989119;28;20208;-69
2023/08/03 00:22:54;;;;;;;7.90;1.50;;;;;;;19.45;85.94;98672.78;4983365;28;20231;-69
2023/08/03 00:25:20;;;;;;;6.78;2.22;;;;;;;19.39;86.11;98660.56;4988168;28;20208;-69
2023/08/03 00:27:47;;;;;;;4.95;0.95;;;;;;;19.42;86.08;98663.06;4982294;28;20300;-69
2023/08/03 00:30:13;;;;;;;6.07;1.13;;;;;;;19.36;87.67;98657.16;4984415;28;20661;-69
2023/08/03 00:32:42;;;;;;;5.53;1.33;;;;;;;19.32;88.92;98674.34;4987114;28;20240;-69
2023/08/03 00:35:09;;;;;;;7.77;1.30;;;;;;;19.32;89.19;98658.25;4986235;28;20201;-69
2023/08/03 00:37:37;;;;;;;7.40;1.10;;;;;;;19.32;88.32;98661.81;4986160;28;20215;-69
2023/08/03 00:40:04;;;;;;;4.37;1.00;;;;;;;19.33;87.26;98663.53;4986531;28;20263;-68
2023/08/03 00:42:31;;;;;;;4.93;1.10;;;;;;;19.31;89.15;98661.88;4987464;28;20225;-68
2023/08/03 00:44:57;;;;;;;5.03;1.00;;;;;;;19.29;89.54;98663.78;4983542;28;20348;-69
2023/08/03 00:47:23;;;;;;;5.63;0.93;;;;;;;19.26;91.53;98666.63;4984745;28;20201;-67
2023/08/03 00:49:50;;;;;;;5.23;1.20;;;;;;;19.24;91.42;98663.13;4986806;28;20221;-69
2023/08/03 00:52:16;;;;;;;2.37;1.20;;;;;;;19.22;89.93;98663.22;4986178;28;20233;-69
2023/08/03 00:54:43;;;;;;;7.23;1.20;;;;;;;19.20;91.20;98664.19;4985907;28;20665;-69
2023/08/03 00:57:09;;;;;;;6.20;1.43;;;;;;;19.17;92.88;98678.66;4986797;28;20288;-69
2023/08/03 00:59:36;;;;;;;3.70;1.10;;;;;;;19.14;93.48;98673.44;4986450;28;20204;-69
2023/08/03 01:02:03;;;;;;;6.00;1.10;;;;;;;19.14;92.80;98673.44;4981660;28;20764;-69
2023/08/03 01:04:29;;;;;;;2.53;0.80;;;;;;;19.10;93.80;98670.03;4987435;28;20208;-66
2023/08/03 01:06:56;;;;;;;4.43;1.00;;;;;;;19.11;92.57;98665.53;4987530;28;20624;-69
2023/08/03 01:09:22;;;;;;;6.40;1.70;;;;;;;19.12;91.74;98675.31;4986692;28;20820;-68
2023/08/03 01:11:49;;;;;;;7.10;1.10;;;;;;;19.10;92.30;98671.84;4980774;28;20224;-69
2023/08/03 01:14:15;;;;;;;7.43;1.10;;;;;;;19.11;90.46;98676.25;4986025;28;20205;-68
2023/08/03 01:16:41;;;;;;;4.10;0.90;;;;;;;19.06;91.75;98681.00;4986458;28;20201;-67
2023/08/03 01:19:12;;;;;;;8.20;1.00;;;;;;;19.08;90.04;98682.66;4983189;28;20197;-68
2023/08/03 01:21:40;;;;;;;5.33;1.17;;;;;;;19.06;89.69;98692.59;4980091;28;20735;-69
2023/08/03 01:24:07;;;;;;;5.43;0.90;;;;;;;19.04;87.99;98680.19;4985967;28;20294;-69
2023/08/03 01:26:33;;;;;;;5.33;1.00;;;;;;;18.95;88.69;98678.84;4985827;28;20205;-69
2023/08/03 01:29:00;;;;;;;2.97;0.70;;;;;;;18.85;89.69;98687.41;4986615;28;20370;-69
2023/08/03 01:31:26;;;;;;;2.40;0.73;;;;;;;18.79;92.54;98685.84;4987308;28;20215;-69
2023/08/03 01:33:53;;;;;;;3.40;1.20;;;;;;;18.72;93.52;98687.97;4980201;28;20251;-69
2023/08/03 01:36:19;;;;;;;4.40;0.70;;;;;;;18.68;95.34;98704.25;4984237;28;20224;-68
2023/08/03 01:38:53;;;;;;;2.07;0.60;;;;;;;18.73;94.54;98713.84;4985280;28;20209;-66
2023/08/03 01:41:22;;;;;;;3.57;0.97;;;;;;;18.73;94.19;98710.28;4979050;28;20894;-68
2023/08/03 01:44:18;;;;;;;2.80;0.67;;;;;;;18.64;98.67;98716.06;4981408;28;20216;-69
2023/08/03 01:46:44;;;;;;;3.23;0.67;;;;;;;18.62;98.00;98717.97;4985311;28;20698;-68
2023/08/03 01:49:11;;;;;;;4.30;0.80;;;;;;;18.65;100.00;98713.31;4980461;28;21512;-69
2023/08/03 01:51:39;;;;;;;2.50;0.80;;;;;;;18.64;99.54;98716.06;4977898;28;20236;-69
2023/08/03 01:54:05;;;;;;;3.80;0.90;;;;;;;18.62;100.00;98715.28;4981545;28;20205;-68
2023/08/03 01:56:32;;;;;;;2.57;1.07;;;;;;;18.52;100.00;98709.44;4984063;28;20735;-67
2023/08/03 01:58:58;;;;;;;3.50;0.90;;;;;;;18.56;100.00;98715.53;4981365;28;20207;-67
2023/08/03 02:01:25;;;;;;;4.10;0.90;;;;;;;18.56;100.00;98728.94;4979985;28;20582;-67
2023/08/03 02:03:51;;;;;;;2.70;0.63;;;;;;;18.50;100.00;98722.03;4980072;28;20674;-69
2023/08/03 02:06:18;;;;;;;1.57;0.70;;;;;;;18.50;100.00;98721.19;4984889;28;20282;-69
2023/08/03 02:08:44;;;;;;;2.90;0.83;;;;;;;18.46;100.00;98724.00;4985149;28;20275;-69
2023/08/03 02:11:10;;;;;;;1.77;0.60;;;;;;;18.43;100.00;98734.00;4978830;28;20358;-67
2023/08/03 02:13:37;;;;;;;2.73;0.70;;;;;;;18.32;100.00;98734.44;4983823;28;20209;-69
2023/08/03 02:16:04;;;;;;;1.40;0.60;;;;;;;18.19;100.00;98740.44;4986867;28;20201;-69
2023/08/03 02:18:44;;;;;;;2.77;0.60;;;;;;;17.98;100.00;98745.75;4981438;28;20732;-69
2023/08/03 02:21:11;;;;;;;2.07;0.50;;;;;;;17.78;100.00;98745.75;4984381;28;20199;-67
2023/08/03 02:23:37;;;;;;;2.03;0.80;;;;;;;17.68;100.00;98744.41;4987934;28;20208;-69
2023/08/03 02:26:03;;;;;;;3.17;0.70;;;;;;;17.55;100.00;98750.22;4988692;28;20200;-69
2023/08/03 02:28:30;;;;;;;2.00;0.80;;;;;;;17.48;100.00;98758.56;4988120;28;20740;-67
2023/08/03 02:30:57;;;;;;;2.30;0.70;;;;;;;17.41;100.00;98757.06;4988122;28;20216;-69
2023/08/03 02:33:24;;;;;;;3.53;0.70;;;;;;;17.37;100.00;98761.69;4985812;28;20224;-69
2023/08/03 02:35:51;;;;;;;3.23;0.60;;;;;;;17.31;100.00;98766.41;4981508;28;20198;-69
2023/08/03 02:38:17;;;;;;;2.40;0.77;;;;;;;17.29;100.00;98761.13;4982280;28;20662;-69
2023/08/03 02:40:44;;;;;;;5.00;0.70;;;;;;;17.30;100.00;98767.34;4986200;28;20208;-69
2023/08/03 02:43:10;;;;;;;1.37;0.70;;;;;;;17.25;100.00;98759.50;4988635;28;20223;-69
2023/08/03 02:45:37;;;;;;;1.70;0.80;;;;;;;17.25;100.00;98772.88;4988751;28;20481;-69
2023/08/03 02:48:03;;;;;;;1.90;0.63;;;;;;;17.21;100.00;98774.81;4987367;28;20201;-69
2023/08/03 02:50:30;;;;;;;1.87;0.60;;;;;;;17.11;100.00;98778.75;4982220;28;20653;-68
2023/08/03 02:52:56;;;;;;;6.03;1.00;;;;;;;17.03;100.00;98782.66;4985392;28;20261;-68
2023/08/03 02:55:22;;;;;;;4.23;0.90;;;;;;;16.96;100.00;98781.16;4990321;28;20212;-69
2023/08/03 02:57:49;;;;;;;1.57;0.70;;;;;;;16.89;100.00;98778.72;4983029;28;20205;-68
2023/08/03 03:00:16;;;;;;;3.27;0.80;;;;;;;16.91;100.00;98787.56;4984327;28;20204;-69
2023/08/03 03:02:43;;;;;;;2.10;0.80;;;;;;;16.84;100.00;98782.50;4988657;28;20225;-69
2023/08/03 03:05:09;;;;;;;4.40;1.00;;;;;;;16.85;100.00;98786.94;4990088;28;20637;-68
2023/08/03 03:07:36;;;;;;;1.43;0.80;;;;;;;16.81;100.00;98794.19;4990562;28;20197;-68
2023/08/03 03:10:02;;;;;;;3.57;0.80;;;;;;;16.79;100.00;98801.38;4983890;28;20511;-69
2023/08/03 03:12:29;;;;;;;2.53;0.90;;;;;;;16.78;100.00;98793.41;4984203;28;20232;-68
2023/08/03 03:14:55;;;;;;;3.00;1.90;;;;;;;16.78;100.00;98791.59;4987303;28;20209;-69
2023/08/03 03:17:22;;;;;;;4.00;1.67;;;;;;;16.74;100.00;98800.66;4988135;28;20208;-69
2023/08/03 03:19:48;;;;;;;3.53;1.10;;;;;;;16.68;100.00;98802.69;4986993;28;20236;-69
2023/08/03 03:22:14;;;;;;;2.30;1.40;;;;;;;16.60;100.00;98790.47;4981091;28;20217;-69
2023/08/03 03:24:41;;;;;;;2.37;1.13;;;;;;;16.53;100.00;98793.41;4982722;28;20288;-68
2023/08/03 03:27:07;;;;;;;6.03;1.20;;;;;;;16.57;100.00;98800.41;4988053;28;20212;-69
2023/08/03 03:29:33;;;;;;;4.17;1.27;;;;;;;16.57;100.00;98819.09;4984777;28;20209;-68
2023/08/03 03:32:00;;;;;;;2.73;1.10;;;;;;;16.54;100.00;98825.44;4980620;28;20325;-69
2023/08/03 03:34:29;;;;;;;2.10;1.07;;;;;;;16.47;100.00;98820.38;4990141;28;20209;-69
2023/08/03 03:36:56;;;;;;;4.13;1.30;;;;;;;16.54;100.00;98844.16;4984785;28;20289;-68
2023/08/03 03:39:22;;;;;;;4.93;1.20;;;;;;;16.52;100.00;98835.31;4986635;28;20204;-69
2023/08/03 03:41:48;;;;;;;1.80;1.00;;;;;;;16.56;100.00;98833.41;4987608;28;20216;-69
2023/08/03 03:44:15;;;;;;;3.60;1.10;;;;;;;16.55;100.00;98840.53;4983884;28;20197;-68
2023/08/03 03:46:41;;;;;;;6.17;1.60;;;;;;;16.53;100.00;98836.19;4987986;28;20206;-69
2023/08/03 03:49:08;;;;;;;3.07;1.20;;;;;;;16.44;100.00;98821.34;4987286;28;20208;-68
2023/08/03 03:51:34;;;;;;;3.33;1.47;;;;;;;16.36;100.00;98822.53;4987939;28;20224;-67
2023/08/03 03:54:04;;;;;;;5.03;1.23;;;;;;;16.37;100.00;98841.16;4991006;23;20229;-79
2023/08/03 03:56:30;;;;;;;3.00;1.30;;;;;;;16.40;100.00;98834.84;4966167;28;20212;-79
2023/08/03 03:58:56;;;;;;;5.20;1.20;;;;;;;16.35;100.00;98840.34;4971199;28;20245;-75
2023/08/03 04:01:23;;;;;;;4.00;1.20;;;;;;;16.36;100.00;98834.09;4967331;28;20202;-75
2023/08/03 04:03:49;;;;;;;4.33;1.10;;;;;;;16.35;100.00;98843.03;4976169;28;20248;-75
2023/08/03 04:06:15;;;;;;;6.10;1.30;;;;;;;16.37;100.00;98830.47;4987101;28;20388;-77
2023/08/03 04:08:42;;;;;;;3.63;1.00;;;;;;;16.36;100.00;98839.44;4994931;28;20288;-77
2023/08/03 04:11:08;;;;;;;6.03;1.33;;;;;;;16.42;100.00;98833.03;4988508;28;20594;-75
2023/08/03 04:13:35;;;;;;;5.13;1.20;;;;;;;16.41;100.00;98845.50;4974013;28;20232;-75
2023/08/03 04:16:01;;;;;;;2.90;1.03;;;;;;;16.48;100.00;98839.03;4988562;28;20207;-74
2023/08/03 04:18:28;;;;;;;2.87;1.00;;;;;;;16.49;100.00;98858.59;4991792;28;20201;-75
2023/08/03 04:20:54;;;;;;;6.10;1.30;;;;;;;16.51;100.00;98854.94;4988674;28;20259;-77
2023/08/03 04:23:20;;;;;;;3.53;1.13;;;;;;;16.56;100.00;98865.47;4985073;28;20231;-76
2023/08/03 04:25:47;;;;;;;3.93;1.30;;;;;;;16.58;100.00;98868.97;4991257;28;20287;-75
2023/08/03 04:28:13;;;;;;;1.60;0.80;;;;;;;16.59;100.00;98854.66;4990432;28;20220;-75
2023/08/03 04:30:40;;;;;;;2.00;1.07;;;;;;;16.57;100.00;98870.75;4985350;28;20216;-75
2023/08/03 04:33:06;;;;;;;3.13;1.10;;;;;;;16.54;100.00;98870.00;4984680;28;20217;-76
2023/08/03 04:35:32;;;;;;;2.47;1.00;;;;;;;16.52;100.00;98870.06;4969108;28;20244;-77
2023/08/03 04:38:01;;;;;;;1.87;0.93;;;;;;;16.53;100.00;98879.81;4985173;28;20283;-78
2023/08/03 04:40:28;;;;;;;5.87;1.23;;;;;;;16.50;100.00;98884.41;4984587;28;20205;-76
2023/08/03 04:42:54;;;;;;;3.07;1.10;;;;;;;16.50;100.00;98876.38;4986858;28;20307;-75
2023/08/03 04:45:20;;;;;;;2.80;1.20;;;;;;;16.50;100.00;98887.06;4986073;28;20201;-75
2023/08/03 04:47:47;;;;;;;3.47;1.00;;;;;;;16.53;100.00;98892.31;4984332;28;20291;-75
2023/08/03 04:50:13;;;;;;;2.57;1.20;;;;;;;16.55;100.00;98885.97;4979767;28;20263;-77
2023/08/03 04:52:39;;;;;;;5.33;1.50;;;;;;;16.52;100.00;98902.13;4988727;28;20228;-75
2023/08/03 04:55:06;;;;;;;3.87;1.10;;;;;;;16.50;100.00;98897.75;4988193;28;20251;-75
2023/08/03 04:57:33;;;;;;;3.80;1.40;;;;;;;16.50;100.00;98897.75;4984103;28;20585;-77
2023/08/03 04:59:59;;;;;;;4.97;1.37;;;;;;;16.48;100.00;98897.81;4984388;28;20212;-76
2023/08/03 05:02:25;;;;;;;3.30;1.27;;;;;;;16.49;100.00;98902.22;4989603;28;20220;-75
2023/08/03 05:04:52;;;;;;;7.97;1.40;;;;;;;16.54;100.00;98904.75;4988093;28;20626;-75
2023/08/03 05:07:18;;;;;;;4.67;1.03;;;;;;;16.64;100.00;98898.16;4981097;28;20691;-75
2023/08/03 05:09:45;;;;;;;3.80;1.40;;;;;;;16.67;100.00;98911.44;4979904;28;20212;-75
2023/08/03 05:12:11;;;;;;;2.90;0.90;;;;;;;16.78;100.00;98911.91;4984718;28;20232;-78
2023/08/03 05:14:37;;;;;;;4.57;1.03;;;;;;;16.82;100.00;98923.41;4981509;28;20211;-75
2023/08/03 05:17:04;;;;;;;6.60;1.33;;;;;;;16.89;100.00;98917.78;4985696;28;20299;-75
2023/08/03 05:19:31;;;;;;;4.47;1.17;;;;;;;17.01;100.00;98912.91;4984803;28;20213;-75
2023/08/03 05:21:58;;;;;;;1.87;0.93;;;;;;;17.13;100.00;98915.13;4987290;28;20209;-75
2023/08/03 05:24:25;;;;;;;6.70;1.10;;;;;;;17.20;100.00;98922.00;4986876;28;20197;-75
2023/08/03 05:26:51;;;;;;;3.93;1.10;;;;;;;17.30;100.00;98922.53;4986009;28;20212;-74
2023/08/03 05:29:18;;;;;;;2.13;1.13;;;;;;;17.38;100.00;98921.31;4985580;28;20212;-77
2023/08/03 05:31:48;;;;;;;2.83;1.20;;;;;;;17.36;100.00;98925.88;4985733;28;20217;-77
2023/08/03 05:34:15;;;;;;;4.07;1.00;;;;;;;17.35;100.00;98929.47;4984356;28;20216;-75
2023/08/03 05:36:42;;;;;;;3.47;1.20;;;;;;;17.33;100.00;98922.44;4985191;28;20236;-75
2023/08/03 05:39:08;;;;;;;2.10;0.90;;;;;;;17.34;100.00;98921.50;4980568;28;20205;-74
2023/08/03 05:41:35;;;;;;;1.63;0.90;;;;;;;17.32;100.00;98928.72;4966565;28;20299;-74
2023/08/03 05:44:02;;;;;;;2.37;1.00;;;;;;;17.37;100.00;98927.59;4987530;28;20220;-74
2023/08/03 05:46:32;;;;;;;5.30;1.03;;;;;;;17.47;100.00;98933.47;4985624;28;20208;-73
2023/08/03 05:48:58;;;;;;;2.77;1.40;;;;;;;17.56;100.00;98911.72;4968358;28;20209;-77
2023/08/03 05:51:27;;;;;;;5.03;2.17;;;;;;;17.59;100.00;98908.91;4969641;28;20212;-74
2023/08/03 05:53:55;;;;;;;3.90;1.20;;;;;;;17.67;100.00;98922.06;4985221;28;20323;-73
2023/08/03 05:56:22;;;;;;;2.97;1.20;;;;;;;17.66;100.00;98922.97;4985036;28;20211;-79
2023/08/03 05:58:50;;;;;;;4.47;1.17;;;;;;;17.78;100.00;98923.38;4989474;28;20590;-76
2023/08/03 06:01:21;;;;;;;3.57;1.00;;;;;;;17.86;100.00;98928.41;4986280;28;20205;-76
2023/08/03 06:03:50;;;;;;;3.90;0.97;;;;;;;17.84;100.00;98919.56;4986038;28;20232;-75
2023/08/03 06:06:19;;;;;;;3.00;0.80;;;;;;;17.91;100.00;98938.94;4980960;28;20669;-74
2023/08/03 06:08:47;;;;;;;5.30;1.00;;;;;;;17.93;100.00;98939.75;4982622;28;20208;-75
2023/08/03 06:11:16;;;;;;;2.20;1.00;;;;;;;17.92;100.00;98927.31;4979349;28;20231;-76
2023/08/03 06:13:52;;;;;;;4.40;1.30;;;;;;;17.80;100.00;98920.63;4975815;28;20267;-74
2023/08/03 06:16:22;;;;;;;2.73;0.90;;;;;;;17.87;100.00;98938.19;4986350;28;20699;-76
2023/08/03 06:18:54;;;;;;;4.80;0.90;;;;;;;17.87;100.00;98927.47;4987603;28;20275;-74
2023/08/03 06:21:23;;;;;;;2.63;1.20;;;;;;;17.91;100.00;98928.22;4980694;28;20231;-75
2023/08/03 06:23:53;;;;;;;7.40;1.50;;;;;;;17.99;100.00;98920.75;4987348;28;20441;-75
2023/08/03 06:26:21;;;;;;;3.20;1.00;;;;;;;17.99;100.00;98920.75;4983378;28;20267;-77
2023/08/03 06:28:53;;;;;;;3.90;1.10;;;;;;;18.20;100.00;98911.00;4987489;28;20212;-76
2023/08/03 06:31:28;;;;;;;5.13;1.20;;;;;;;18.22;100.00;98928.75;4982118;28;20244;-74
2023/08/03 06:33:56;;;;;;;3.07;0.83;;;;;;;18.24;100.00;98934.03;4986502;28;20231;-74
2023/08/03 06:36:27;;;;;;;3.00;1.30;;;;;;;18.28;100.00;98939.22;4986278;28;20292;-73
2023/08/03 06:38:54;;;;;;;2.93;1.10;;;;;;;18.28;100.00;98941.03;4986488;28;20204;-74
2023/08/03 06:41:23;;;;;;;3.27;1.00;;;;;;;18.16;100.00;98959.34;4986528;28;20291;-77
2023/08/03 06:43:50;;;;;;;10.07;1.67;;;;;;;18.08;100.00;98945.41;4977019;28;20529;-74
2023/08/03 06:46:17;;;;;;;7.53;1.83;;;;;;;18.07;100.00;98957.06;4961584;28;20303;-73
2023/08/03 06:48:43;;;;;;;5.27;1.37;;;;;;;18.01;100.00;98959.06;4975576;28;20751;-76
2023/08/03 06:51:10;;;;;;;3.87;1.33;;;;;;;17.95;100.00;98968.22;4975558;28;20227;-75
2023/08/03 06:53:37;;;;;;;3.50;1.30;;;;;;;17.98;100.00;98977.94;4976225;28;20255;-77
2023/08/03 06:56:03;;;;;;;8.07;1.47;;;;;;;18.03;100.00;98982.22;4973953;28;20308;-74
2023/08/03 06:58:30;;;;;;;2.53;0.93;;;;;;;17.95;100.00;98986.97;4975000;28;20300;-75
2023/08/03 07:00:56;;;;;;;4.43;1.27;;;;;;;17.94;100.00;98989.72;4976262;28;20364;-74
2023/08/03 07:03:23;;;;;;;3.73;1.13;;;;;;;17.91;100.00;98998.75;4975594;28;20784;-76
2023/08/03 07:05:50;;;;;;;3.17;1.13;;;;;;;17.94;100.00;99001.31;4975653;28;20567;-75
2023/08/03 07:08:16;;;;;;;5.53;1.10;;;;;;;17.93;100.00;98996.88;4964475;28;20580;-75
2023/08/03 07:10:42;;;;;;;2.90;1.07;;;;;;;17.97;100.00;98995.81;4977385;28;20214;-74
2023/08/03 07:13:09;;;;;;;3.00;1.00;;;;;;;17.96;100.00;99011.97;4978908;28;20271;-76
2023/08/03 07:15:35;;;;;;;5.73;1.30;;;;;;;18.00;100.00;99013.59;4971860;28;20217;-76
2023/08/03 07:18:06;;;;;;;5.63;1.17;;;;;;;17.99;100.00;99022.56;4990465;28;20662;-74
2023/08/03 07:20:36;;;;;;;2.70;1.10;;;;;;;18.03;100.00;99021.53;4990949;28;20209;-76
2023/08/03 07:23:03;;;;;;;6.63;1.20;;;;;;;18.04;100.00;99020.59;4991532;28;20243;-75
2023/08/03 07:25:32;;;;;;;4.80;1.03;;;;;;;18.08;100.00;99023.09;4991007;28;20205;-74
2023/08/03 07:27:59;;;;;;;3.30;1.10;;;;;;;18.08;100.00;99031.13;4990149;28;20203;-74
2023/08/03 07:30:25;;;;;;;2.87;0.97;;;;;;;18.13;100.00;99029.16;4988197;28;20208;-75
2023/08/03 07:32:51;;;;;;;4.67;1.00;;;;;;;18.24;100.00;99028.72;4987077;28;20319;-74
2023/08/03 07:35:18;;;;;;;6.77;1.03;;;;;;;18.39;100.00;99037.94;4991945;28;20291;-73
2023/08/03 07:37:44;;;;;;;5.50;1.23;;;;;;;18.71;100.00;99028.63;4991075;28;20205;-73
2023/08/03 07:40:11;;;;;;;2.27;0.73;;;;;;;18.79;100.00;99040.78;4986300;28;20213;-74
2023/08/03 07:42:37;;;;;;;1.47;0.70;;;;;;;18.84;100.00;99042.44;4983464;28;20723;-74
2023/08/03 07:45:04;;;;;;;3.07;1.00;;;;;;;19.02;100.00;99039.81;4988295;28;20207;-74
2023/08/03 07:47:31;;;;;;;3.07;1.00;;;;;;;19.02;100.00;99049.69;4989149;28;20209;-76
2023/08/03 07:49:57;;;;;;;4.30;1.40;;;;;;;19.18;100.00;99047.22;4987814;28;20235;-76
2023/08/03 07:52:24;;;;;;;1.43;0.70;;;;;;;19.22;100.00;99055.09;4989369;28;20779;-76
2023/08/03 07:54:52;;;;;;;4.57;1.00;;;;;;;19.36;100.00;99050.00;4989299;28;20208;-76
2023/08/03 07:57:18;;;;;;;4.43;0.80;;;;;;;19.71;100.00;99042.22;4990399;28;20721;-76
2023/08/03 07:59:49;;;;;;;3.05;0.70;;;;;;;19.86;100.00;99036.13;4991287;28;20576;-76
2023/08/03 08:02:16;;;;;;;1.33;0.67;;;;;;;19.73;100.00;99061.81;4988405;28;20216;-77
2023/08/03 08:04:43;;;;;;;1.67;0.70;;;;;;;19.71;100.00;99058.31;4989751;28;20216;-77
2023/08/03 08:07:09;;;;;;;4.97;0.77;;;;;;;19.88;100.00;99055.75;4984131;28;20228;-75
2023/08/03 08:09:36;;;;;;;1.43;0.70;;;;;;;19.79;100.00;99055.28;4992571;28;20209;-76
2023/08/03 08:12:05;;;;;;;1.63;0.60;;;;;;;19.85;100.00;99057.69;4990291;28;20279;-77
2023/08/03 08:14:32;;;;;;;4.47;0.80;;;;;;;19.79;100.00;99053.47;4991332;28;20636;-76
2023/08/03 08:16:58;;;;;;;1.97;0.67;;;;;;;19.90;100.00;99052.97;4986465;28;20200;-75
2023/08/03 08:19:32;;;;;;;1.00;0.50;;;;;;;20.73;100.00;99049.94;4989661;28;20641;-76
2023/08/03 08:21:58;;;;;;;2.65;0.93;;;;;;;21.27;100.00;99051.72;4991094;28;20205;-76
2023/08/03 08:24:41;;;;;;;1.80;0.70;;;;;;;21.61;100.00;99047.22;4983622;28;20292;-77
2023/08/03 08:27:07;;;;;;;2.08;0.98;;;;;;;21.71;100.00;99030.53;4983960;28;20208;-75
2023/08/03 08:29:37;;;;;;;3.78;0.63;;;;;;;21.72;100.00;99056.50;4988033;28;20201;-76
2023/08/03 08:32:04;;;;;;;0.88;0.50;;;;;;;21.76;100.00;99054.53;4987916;28;20233;-75
2023/08/03 08:34:30;;;;;;;1.52;0.68;;;;;;;21.77;100.00;99059.81;4986039;28;20205;-76
2023/08/03 08:36:58;;;;;;;0.98;0.40;;;;;;;21.78;100.00;99066.97;4969787;28;20201;-75
2023/08/03 08:39:25;;;;;;;1.30;0.50;;;;;;;21.66;100.00;99077.53;4989139;28;20589;-75
2023/08/03 08:41:51;;;;;;;1.50;0.50;;;;;;;21.67;100.00;99066.66;4989166;28;20215;-74
2023/08/03 08:44:18;;;;;;;0.40;0.40;;;;;;;22.15;97.91;99081.19;4984523;28;20283;-78
2023/08/03 08:46:44;;;;;;;0.85;0.40;;;;;;;22.28;96.85;99068.75;4988073;28;20201;-78
2023/08/03 08:49:12;;;;;;;1.08;0.50;;;;;;;21.75;99.77;99072.50;4986628;28;20347;-74
2023/08/03 08:52:01;;;;;;;0.80;0.40;;;;;;;21.55;100.00;99078.06;4982342;28;20350;-75
2023/08/03 08:54:32;;;;;;;1.30;0.50;;;;;;;21.47;100.00;99083.88;4989158;28;20441;-75
2023/08/03 08:57:02;;;;;;;1.85;0.80;;;;;;;21.49;100.00;99089.16;4986479;28;20287;-76
2023/08/03 08:59:36;;;;;;;1.20;0.55;;;;;;;21.48;100.00;99090.13;4986726;28;20231;-75
2023/08/03 09:02:03;;;;;;;3.08;0.70;;;;;;;21.27;100.00;99082.22;4987145;28;20223;-78
2023/08/03 09:04:33;;;;;;;4.97;0.60;;;;;;;21.19;100.00;99070.91;4988857;28;20213;-74
2023/08/03 09:07:02;;;;;;;1.25;0.60;;;;;;;21.39;100.00;99090.59;4986597;28;20655;-76
2023/08/03 09:09:35;;;;;;;0.57;0.50;;;;;;;21.48;100.00;99084.75;4986424;28;20217;-75
2023/08/03 09:12:01;;;;;;;1.77;0.52;;;;;;;21.76;100.00;99085.03;4989100;28;20224;-76
2023/08/03 09:14:28;;;;;;;3.22;0.65;;;;;;;22.03;100.00;99092.63;4988506;28;20208;-75
2023/08/03 09:17:17;;;;;;;1.40;1.23;;;;;;;21.65;100.00;99089.25;4987321;28;20209;-75
2023/08/03 09:19:45;;;;;;;2.33;0.60;;;;;;;21.73;100.00;99100.50;4988093;28;20212;-76
2023/08/03 09:22:15;;;;;;;0.98;0.52;;;;;;;21.63;100.00;99097.44;4984732;28;20229;-74
2023/08/03 09:25:07;;;;;;;1.27;0.60;;;;;;;21.11;100.00;99099.16;4988661;28;20199;-74
2023/08/03 09:27:35;;;;;;;1.90;0.52;;;;;;;21.32;100.00;99114.28;4986775;28;20265;-75
2023/08/03 09:30:05;;;;;;;1.58;0.70;;;;;;;21.24;100.00;99121.91;4987636;28;20291;-74
2023/08/03 09:32:35;;;;;;;0.95;0.50;;;;;;;21.01;100.00;99116.75;4979441;28;20224;-74
2023/08/03 09:35:02;;;;;;;1.45;0.70;;;;;;;21.04;100.00;99119.28;4986658;28;20782;-73
2023/08/03 09:37:34;;;;;;;1.02;0.50;;;;;;;21.10;100.00;99135.13;4985547;28;20286;-74
2023/08/03 09:40:04;;;;;;;1.60;0.57;;;;;;;21.39;100.00;99139.09;4987223;28;20295;-75
2023/08/03 09:42:31;;;;;;;1.92;0.70;;;;;;;21.39;100.00;99128.31;4985407;28;20233;-76
2023/08/03 09:45:03;;;;;;;2.10;0.57;;;;;;;21.17;100.00;99131.16;4985214;28;20201;-74
2023/08/03 09:47:36;;;;;;;1.95;0.65;;;;;;;21.10;100.00;99137.81;4987004;28;20213;-75
2023/08/03 09:50:03;;;;;;;1.92;0.52;;;;;;;21.43;100.00;99127.22;4987121;28;20634;-74
2023/08/03 09:52:31;;;;;;;1.42;0.63;;;;;;;21.52;100.00;99138.38;4983350;28;20315;-77
2023/08/03 09:55:18;;;;;;;1.65;0.60;;;;;;;21.48;100.00;99135.91;4986401;28;20305;-76
2023/08/03 09:57:51;;;;;;;3.65;0.52;;;;;;;21.54;100.00;99127.53;4987768;28;20207;-76
2023/08/03 10:00:18;;;;;;;0.68;0.47;;;;;;;21.70;100.00;99154.56;4987487;28;20204;-76
2023/08/03 10:02:59;;;;;;;1.60;0.55;;;;;;;21.83;100.00;99150.28;4988686;28;20213;-76
2023/08/03 10:05:28;;;;;;;0.73;0.60;;;;;;;21.81;100.00;99157.56;4983974;28;20227;-76
2023/08/03 10:08:04;;;;;;;1.05;0.50;;;;;;;21.53;100.00;99156.28;4984838;28;20197;-75
2023/08/03 10:10:41;;;;;;;0.65;0.60;;;;;;;21.52;100.00;99156.38;4986179;28;20208;-76
2023/08/03 10:13:07;;;;;;;3.40;0.70;;;;;;;21.35;100.00;99161.75;4982030;28;20232;-76
2023/08/03 10:15:34;;;;;;;2.33;0.80;;;;;;;21.53;100.00;99168.88;4985800;28;20220;-76
2023/08/03 10:18:04;;;;;;;1.67;0.63;;;;;;;21.63;100.00;99174.69;4981725;28;20221;-77
2023/08/03 10:20:32;;;;;;;0.93;0.52;;;;;;;21.42;100.00;99182.03;4986485;28;20204;-80
2023/08/03 10:23:10;;;;;;;0.90;0.45;;;;;;;21.37;100.00;99178.69;4984719;28;20221;-77
2023/08/03 10:25:57;;;;;;;1.58;0.50;;;;;;;21.18;100.00;99176.00;4985881;28;20864;-76
2023/08/03 10:28:43;;;;;;;0.43;0.40;;;;;;;20.92;100.00;99177.28;4990292;28;20224;-76
2023/08/03 10:31:14;;;;;;;1.70;0.60;;;;;;;20.98;100.00;99187.75;4966022;28;20202;-77
2023/08/03 10:33:46;;;;;;;0.57;0.50;;;;;;;21.04;100.00;99189.28;4984474;28;20231;-75
2023/08/03 10:36:28;;;;;;;0.73;0.60;;;;;;;21.14;100.00;99191.44;4981037;28;20209;-77
2023/08/03 10:38:56;;;;;;;1.33;0.60;;;;;;;20.87;100.00;99190.09;4990560;28;20196;-76
2023/08/03 10:41:23;;;;;;;0.70;0.70;;;;;;;20.96;100.00;99181.56;4986655;28;20409;-77
2023/08/03 10:44:05;;;;;;;2.50;0.70;;;;;;;21.08;100.00;99202.50;4984457;28;20219;-75
2023/08/03 10:46:39;;;;;;;0.77;0.60;;;;;;;21.43;100.00;99203.50;4969170;28;20205;-75
2023/08/03 10:49:17;;;;;;;1.13;0.60;;;;;;;21.67;100.00;99216.72;4987679;28;20234;-77
2023/08/03 10:51:55;;;;;;;0.80;0.60;;;;;;;21.92;100.00;99209.09;4976984;28;20208;-78
2023/08/03 10:54:30;;;;;;;1.45;0.60;;;;;;;22.13;100.00;99212.53;4975192;28;20228;-77
2023/08/03 10:57:05;;;;;;;0.85;0.50;;;;;;;22.23;100.00;99219.19;4981034;28;20275;-75
2023/08/03 10:59:39;;;;;;;0.70;0.65;;;;;;;22.43;100.00;99219.00;4977947;28;20633;-76
2023/08/03 11:02:29;;;;;;;1.92;0.70;;;;;;;22.09;100.00;99233.41;4986752;28;20228;-78
2023/08/03 11:05:04;;;;;;;0.95;0.63;;;;;;;21.70;100.00;99236.28;4986387;28;20213;-77
2023/08/03 11:07:37;;;;;;;0.95;0.60;;;;;;;21.65;100.00;99234.78;4987870;28;20208;-77
2023/08/03 11:10:05;;;;;;;1.58;0.93;;;;;;;21.43;100.00;99229.56;4985985;28;20221;-76
2023/08/03 11:12:33;;;;;;;1.60;0.65;;;;;;;21.38;100.00;99237.88;4990859;28;20235;-79
2023/08/03 11:15:01;;;;;;;0.60;0.60;;;;;;;21.23;100.00;99233.25;4985807;28;20223;-77
2023/08/03 11:17:30;;;;;;;0.77;0.57;;;;;;;21.05;100.00;99247.56;4970601;28;20731;-76
2023/08/03 11:19:58;;;;;;;0.95;0.80;;;;;;;21.07;100.00;99243.84;4986398;28;20311;-76
2023/08/03 11:22:25;;;;;;;1.27;0.95;;;;;;;20.95;100.00;99236.34;4983474;28;20248;-76
2023/08/03 11:24:54;;;;;;;2.35;0.70;;;;;;;20.92;100.00;99248.13;4990917;28;20220;-77
2023/08/03 11:27:22;;;;;;;0.75;0.60;;;;;;;20.91;100.00;99241.00;4987250;28;20201;-79
2023/08/03 11:29:53;;;;;;;1.80;0.68;;;;;;;21.03;100.00;99252.13;4988323;28;20201;-77
2023/08/03 11:32:27;;;;;;;1.42;0.80;;;;;;;21.46;100.00;99245.59;4989872;28;20224;-77